Time;durP1;ratioP1;P1;durP2;ratioP2;P2;SDS_P1;SDS_P2;PMS_P1;PMS_P2;Temp;Humidity;BMP_temperature;BMP_pressure;BME280_temperature;BME280_humidity;BME280_pressure;Samples;Min_cycle;Max_cycle;Signal;HPM_P1;HPM_P2
2023/12/08 00:03:04;;;;;;;9.38;3.83;;;;;;;1.39;64.03;99385.44;10485496;28;20138;-63
2023/12/08 00:08:06;;;;;;;7.90;4.00;;;;;;;1.46;64.23;99398.97;10502332;28;20340;-63
2023/12/08 00:13:08;;;;;;;10.75;4.45;;;;;;;1.47;64.08;99403.22;10519643;28;20163;-63
2023/12/08 00:18:10;;;;;;;8.75;3.85;;;;;;;1.58;64.27;99390.88;10501852;28;20123;-64
2023/12/08 00:23:13;;;;;;;7.90;4.22;;;;;;;1.54;64.30;99384.13;10519763;28;20838;-63
2023/12/08 00:28:15;;;;;;;11.68;3.92;;;;;;;1.61;63.89;99380.44;10519657;28;20476;-64
2023/12/08 00:33:17;;;;;;;7.70;3.90;;;;;;;1.61;63.76;99385.59;10518970;28;20054;-63
2023/12/08 00:38:19;;;;;;;7.85;4.10;;;;;;;1.68;64.03;99382.78;10519278;28;20495;-64
2023/12/08 00:43:21;;;;;;;11.00;4.10;;;;;;;1.75;63.58;99381.69;10518471;28;20055;-63
2023/12/08 00:48:23;;;;;;;7.72;4.03;;;;;;;1.64;63.20;99373.47;10518195;28;20154;-64
2023/12/08 00:53:26;;;;;;;8.55;3.92;;;;;;;1.70;62.82;99375.00;10498855;28;20080;-63
2023/12/08 00:58:28;;;;;;;7.07;3.38;;;;;;;1.77;63.56;99392.78;10496720;28;20206;-64
2023/12/08 01:03:29;;;;;;;7.60;3.50;;;;;;;1.84;63.10;99362.50;10518484;28;20109;-63
2023/12/08 01:08:32;;;;;;;8.15;3.25;;;;;;;1.71;63.27;99346.59;10517149;28;20056;-64
2023/12/08 01:13:34;;;;;;;8.23;3.63;;;;;;;1.58;63.57;99308.41;10518542;28;20126;-63
2023/12/08 01:18:36;;;;;;;9.00;3.90;;;;;;;1.62;63.37;99317.72;10516799;28;20044;-63
2023/12/08 01:23:38;;;;;;;8.98;3.70;;;;;;;1.48;63.56;99337.94;10517699;28;20098;-63
2023/12/08 01:28:41;;;;;;;10.20;4.25;;;;;;;1.57;63.39;99327.31;10517580;28;20032;-63
2023/12/08 01:33:43;;;;;;;7.30;3.67;;;;;;;1.65;63.23;99351.09;10517654;28;20044;-63
2023/12/08 01:38:46;;;;;;;7.63;3.75;;;;;;;1.89;63.30;99358.03;10516876;28;20078;-64
2023/12/08 01:43:48;;;;;;;6.57;3.13;;;;;;;2.01;62.83;99368.75;10498956;28;20166;-63
2023/12/08 01:48:50;;;;;;;8.40;3.95;;;;;;;1.97;63.01;99341.38;10516799;28;20051;-64
2023/12/08 01:53:53;;;;;;;9.02;3.95;;;;;;;1.75;63.17;99316.38;10516221;28;20040;-63
2023/12/08 01:58:55;;;;;;;7.78;3.63;;;;;;;1.64;63.34;99310.75;10517205;28;20052;-64
2023/12/08 02:03:57;;;;;;;8.15;4.40;;;;;;;1.59;63.02;99322.94;10524273;28;20123;-64
2023/12/08 02:09:00;;;;;;;9.50;4.57;;;;;;;1.57;63.23;99315.28;10524415;28;20134;-63
2023/12/08 02:14:02;;;;;;;9.88;4.57;;;;;;;1.56;62.93;99318.75;10524828;28;20068;-63
2023/12/08 02:19:07;;;;;;;8.23;3.92;;;;;;;1.66;62.73;99308.97;10505880;28;20082;-64
2023/12/08 02:24:10;;;;;;;5.93;3.30;;;;;;;1.72;62.42;99306.19;10523482;28;20077;-63
2023/12/08 02:29:12;;;;;;;8.38;4.13;;;;;;;1.85;62.48;99304.88;10524702;28;20052;-64
2023/12/08 02:34:18;;;;;;;9.95;3.58;;;;;;;2.01;62.61;99293.97;10524196;28;20093;-63
2023/12/08 02:39:21;;;;;;;8.52;4.43;;;;;;;1.96;62.25;99287.28;10522724;28;20051;-63
2023/12/08 02:44:23;;;;;;;7.60;3.75;;;;;;;2.01;62.17;99290.56;10523763;28;20105;-64
2023/12/08 02:49:25;;;;;;;7.28;3.67;;;;;;;2.03;62.38;99281.84;10522014;28;20485;-64
2023/12/08 02:54:27;;;;;;;9.57;3.80;;;;;;;2.16;62.61;99285.69;10522453;28;20491;-64
2023/12/08 02:59:29;;;;;;;8.57;3.97;;;;;;;2.23;62.13;99284.56;10504779;28;20117;-63
2023/12/08 03:04:31;;;;;;;10.00;3.85;;;;;;;2.19;61.83;99274.44;10522834;28;20040;-63
2023/12/08 03:09:33;;;;;;;8.32;4.13;;;;;;;2.02;62.11;99264.72;10503555;28;20048;-63
2023/12/08 03:14:35;;;;;;;6.88;3.42;;;;;;;1.98;62.09;99242.50;10521860;28;20268;-63
2023/12/08 03:19:37;;;;;;;7.78;3.80;;;;;;;2.15;62.41;99241.91;10503205;28;20512;-64
2023/12/08 03:24:39;;;;;;;6.43;3.10;;;;;;;2.20;62.10;99234.81;10522524;28;20817;-64
2023/12/08 03:29:41;;;;;;;7.78;3.75;;;;;;;2.06;62.49;99225.03;10521740;28;20042;-63
2023/12/08 03:34:43;;;;;;;6.90;3.72;;;;;;;1.95;62.74;99216.00;10521266;28;20036;-63
2023/12/08 03:39:46;;;;;;;9.15;4.53;;;;;;;1.79;63.35;99207.13;10503576;28;20138;-64
2023/12/08 03:44:48;;;;;;;8.32;3.60;;;;;;;1.87;63.33;99205.94;10500521;28;20523;-64
2023/12/08 03:49:50;;;;;;;7.13;3.85;;;;;;;1.69;63.87;99201.47;10521310;28;20055;-63
2023/12/08 03:54:52;;;;;;;7.57;3.80;;;;;;;1.67;64.22;99200.66;10520761;28;20452;-63
2023/12/08 03:59:54;;;;;;;7.15;4.00;;;;;;;1.65;64.31;99202.47;10519730;28;20079;-63
2023/12/08 04:04:56;;;;;;;8.20;4.38;;;;;;;1.62;64.57;99200.00;10501359;28;20163;-63
2023/12/08 04:09:58;;;;;;;10.55;4.55;;;;;;;1.69;64.53;99187.72;10520274;28;20056;-63
2023/12/08 04:15:00;;;;;;;7.35;4.20;;;;;;;1.87;64.31;99195.63;10520612;28;20757;-64
2023/12/08 04:20:03;;;;;;;6.75;3.55;;;;;;;1.84;64.18;99202.66;10519716;28;20040;-63
2023/12/08 04:25:06;;;;;;;10.02;3.92;;;;;;;1.86;64.36;99206.00;10519319;28;20131;-63
2023/12/08 04:30:08;;;;;;;9.00;4.15;;;;;;;1.80;64.49;99206.25;10519224;28;20140;-63
2023/12/08 04:35:10;;;;;;;8.25;4.20;;;;;;;1.74;64.51;99198.72;10519282;28;20135;-62
2023/12/08 04:40:12;;;;;;;9.90;4.30;;;;;;;1.74;64.73;99204.72;10501452;28;20047;-63
2023/12/08 04:45:15;;;;;;;9.15;4.28;;;;;;;1.60;64.62;99194.06;10500929;28;20152;-62
2023/12/08 04:50:17;;;;;;;7.88;4.18;;;;;;;1.53;65.10;99186.59;10518312;28;20424;-62
2023/12/08 04:55:19;;;;;;;7.47;4.35;;;;;;;1.50;65.09;99171.25;10518283;28;20080;-62
2023/12/08 05:00:21;;;;;;;11.25;4.95;;;;;;;1.40;65.50;99169.88;10517721;28;20056;-62
2023/12/08 05:05:24;;;;;;;14.95;4.88;;;;;;;1.28;66.11;99169.41;10498077;28;20112;-62
2023/12/08 05:10:26;;;;;;;10.35;4.28;;;;;;;1.17;66.43;99168.94;10518269;28;20052;-62
2023/12/08 05:15:28;;;;;;;9.10;4.35;;;;;;;1.30;66.11;99164.19;10517579;28;20040;-62
2023/12/08 05:20:30;;;;;;;10.98;5.57;;;;;;;1.38;65.96;99165.63;10517849;28;20071;-63
2023/12/08 05:25:32;;;;;;;9.77;4.43;;;;;;;1.45;66.13;99173.97;10517299;28;20101;-63
2023/12/08 05:30:35;;;;;;;10.52;4.72;;;;;;;1.56;65.97;99176.19;10499398;28;20044;-63
2023/12/08 05:35:37;;;;;;;9.60;4.18;;;;;;;1.71;65.73;99173.88;10516185;28;20036;-63
2023/12/08 05:40:39;;;;;;;9.93;4.32;;;;;;;1.77;65.59;99165.94;10499327;28;20496;-64
2023/12/08 05:45:42;;;;;;;10.18;4.65;;;;;;;1.86;65.52;99175.06;10516601;28;20047;-64
2023/12/08 05:50:44;;;;;;;8.07;4.63;;;;;;;1.89;65.27;99170.63;10517610;28;20065;-64
2023/12/08 05:55:48;;;;;;;9.07;4.15;;;;;;;1.85;65.38;99168.22;10516761;28;20052;-64
2023/12/08 06:00:50;;;;;;;9.20;4.70;;;;;;;1.73;65.56;99174.69;10516382;28;20055;-63
2023/12/08 06:05:53;;;;;;;10.80;4.43;;;;;;;1.66;65.54;99175.81;10516788;28;20531;-64
2023/12/08 06:10:55;;;;;;;8.35;4.50;;;;;;;1.64;65.89;99187.06;10515233;28;20036;-63
2023/12/08 06:15:58;;;;;;;6.97;4.03;;;;;;;1.59;66.25;99194.09;10515432;28;20051;-63
2023/12/08 06:21:00;;;;;;;10.93;4.93;;;;;;;1.57;66.17;99188.16;10516503;28;20051;-64
2023/12/08 06:26:02;;;;;;;10.18;4.20;;;;;;;1.55;66.10;99195.94;10497933;28;20133;-64
2023/12/08 06:31:04;;;;;;;9.23;4.75;;;;;;;1.62;66.30;99194.84;10479405;28;20094;-65
2023/12/08 06:36:07;;;;;;;10.40;4.30;;;;;;;1.76;66.13;99202.09;10497420;28;20037;-64
2023/12/08 06:41:09;;;;;;;9.85;4.70;;;;;;;1.85;65.87;99204.31;10515480;28;20048;-64
2023/12/08 06:46:11;;;;;;;10.43;4.72;;;;;;;1.73;65.87;99210.75;10519525;28;20486;-64
2023/12/08 06:51:13;;;;;;;8.93;4.80;;;;;;;1.70;66.02;99212.63;10522487;28;20415;-64
2023/12/08 06:56:15;;;;;;;10.05;4.80;;;;;;;1.63;66.22;99193.09;10523768;28;20142;-64
2023/12/08 07:01:17;;;;;;;10.98;5.07;;;;;;;1.24;67.05;99160.09;10471543;28;20419;-64
2023/12/08 07:06:21;;;;;;;12.70;5.32;;;;;;;1.15;67.53;99198.22;10513088;28;20052;-64
2023/12/08 07:11:23;;;;;;;9.68;4.97;;;;;;;1.38;67.08;99208.56;10513360;27;20037;-65
2023/12/08 07:16:25;;;;;;;8.88;4.57;;;;;;;1.39;66.87;99215.41;10480438;28;20049;-64
2023/12/08 07:21:27;;;;;;;10.73;4.93;;;;;;;1.33;67.04;99211.31;10479631;28;20048;-64
2023/12/08 07:26:29;;;;;;;11.13;5.03;;;;;;;1.42;67.10;99206.75;10480064;28;20032;-64
2023/12/08 07:31:31;;;;;;;10.73;4.70;;;;;;;1.46;66.78;99192.88;10479887;28;20049;-63
2023/12/08 07:36:33;;;;;;;7.55;4.50;;;;;;;1.61;66.88;99200.88;10479711;28;20058;-63
2023/12/08 07:41:35;;;;;;;11.52;5.28;;;;;;;1.66;66.86;99205.88;10478296;28;20067;-64
2023/12/08 07:46:37;;;;;;;10.25;4.70;;;;;;;1.72;66.51;99205.66;10479581;28;21069;-63
2023/12/08 07:51:40;;;;;;;8.90;3.95;;;;;;;1.82;66.44;99209.59;10481278;28;20044;-64
2023/12/08 07:56:42;;;;;;;9.35;3.83;;;;;;;1.96;66.22;99231.41;10470433;28;20051;-64
2023/12/08 08:01:44;;;;;;;8.65;5.13;;;;;;;2.04;66.11;99226.81;10502479;28;20052;-64
2023/12/08 08:06:47;;;;;;;9.63;4.78;;;;;;;2.03;66.02;99232.03;10514910;28;20040;-64
2023/12/08 08:11:49;;;;;;;7.90;4.25;;;;;;;2.07;66.15;99220.72;10516602;28;20412;-64
2023/12/08 08:16:51;;;;;;;9.57;4.68;;;;;;;2.17;65.97;99224.63;10497938;28;20047;-64
2023/12/08 08:21:53;;;;;;;11.35;4.90;;;;;;;2.22;65.97;99220.13;10515855;28;20048;-62
2023/12/08 08:27:15;;;;;;;8.40;4.07;;;;;;;2.29;65.70;99220.75;10516014;28;20040;-64
2023/12/08 08:32:17;;;;;;;9.77;4.38;;;;;;;2.34;65.68;99229.19;10515185;28;20044;-63
2023/12/08 08:37:22;;;;;;;10.60;4.55;;;;;;;2.38;65.58;99216.06;10514551;28;20490;-63
2023/12/08 08:42:25;;;;;;;10.80;5.18;;;;;;;2.38;65.65;99226.41;10507297;28;20059;-64
2023/12/08 08:47:28;;;;;;;9.90;4.75;;;;;;;2.43;65.52;99229.66;10513930;28;20055;-64
2023/12/08 08:52:34;;;;;;;9.32;5.45;;;;;;;2.49;65.68;99228.56;10512528;28;20579;-64
2023/12/08 08:57:47;;;;;;;10.52;5.28;;;;;;;2.60;65.49;99237.56;10530907;28;20073;-65
2023/12/08 09:02:54;;;;;;;11.07;4.95;;;;;;;2.68;65.32;99240.69;10514046;28;20127;-64
2023/12/08 09:07:57;;;;;;;12.77;5.97;;;;;;;2.71;65.09;99250.94;10495657;28;20192;-65
2023/12/08 09:13:02;;;;;;;11.30;6.00;;;;;;;2.75;65.11;99242.16;10493813;28;20870;-65
2023/12/08 09:18:07;;;;;;;11.52;5.22;;;;;;;2.79;65.16;99238.56;10494856;28;20075;-65
2023/12/08 09:23:11;;;;;;;14.40;5.88;;;;;;;2.81;65.21;99247.09;10508263;28;20039;-64
2023/12/08 09:28:16;;;;;;;10.63;5.40;;;;;;;2.94;64.92;99252.63;10513628;28;20038;-64
2023/12/08 09:33:19;;;;;;;14.25;5.78;;;;;;;2.99;64.86;99248.94;10495542;28;20123;-63
2023/12/08 09:38:25;;;;;;;12.15;6.22;;;;;;;2.97;64.82;99249.91;10513383;28;20336;-64
2023/12/08 09:43:45;;;;;;;10.48;5.55;;;;;;;2.99;64.68;99267.00;10513998;28;20048;-64
2023/12/08 09:48:50;;;;;;;9.20;5.03;;;;;;;2.99;64.83;99263.59;10511421;28;20040;-64
2023/12/08 09:53:53;;;;;;;10.07;5.25;;;;;;;3.05;64.85;99259.03;10493433;28;20048;-64
2023/12/08 09:58:55;;;;;;;11.30;5.72;;;;;;;3.11;64.77;99250.19;10486664;28;20163;-66
2023/12/08 10:03:57;;;;;;;11.32;5.70;;;;;;;3.18;64.78;99245.59;10477212;28;20514;-65
2023/12/08 10:09:00;;;;;;;12.50;6.00;;;;;;;3.20;64.65;99249.81;10493418;28;20052;-65
2023/12/08 10:14:03;;;;;;;9.90;5.95;;;;;;;3.22;64.35;99257.50;10509152;28;20048;-65
2023/12/08 10:19:06;;;;;;;10.90;5.28;;;;;;;3.23;64.45;99238.53;10492765;28;20058;-65
2023/12/08 10:24:08;;;;;;;17.02;6.22;;;;;;;3.27;64.55;99237.50;10515908;28;20039;-67
2023/12/08 10:29:11;;;;;;;9.70;5.25;;;;;;;3.29;64.58;99239.13;10518620;28;20097;-66
2023/12/08 10:34:15;;;;;;;11.38;5.60;;;;;;;3.24;64.48;99235.03;10508653;28;20139;-66
2023/12/08 10:39:18;;;;;;;10.63;4.85;;;;;;;3.24;64.79;99240.19;10500022;28;20051;-66
2023/12/08 10:44:21;;;;;;;10.85;5.05;;;;;;;3.28;64.49;99244.34;10499456;28;20052;-66
2023/12/08 10:49:28;;;;;;;9.25;4.32;;;;;;;3.29;64.78;99248.63;10516714;28;20059;-66
2023/12/08 10:54:31;;;;;;;21.55;6.10;;;;;;;3.29;64.67;99248.63;10512649;28;21221;-66
2023/12/08 10:59:40;;;;;;;11.07;5.70;;;;;;;3.26;64.73;99256.47;10494026;28;20071;-67
2023/12/08 11:04:46;;;;;;;14.63;6.03;;;;;;;3.24;64.71;99266.03;10516783;28;20048;-67
2023/12/08 11:09:51;;;;;;;12.60;5.78;;;;;;;3.29;64.73;99256.38;10515714;28;20056;-67
2023/12/08 11:15:07;;;;;;;11.80;5.30;;;;;;;3.34;64.66;99262.16;10513656;28;20063;-66
2023/12/08 11:20:10;;;;;;;10.93;5.05;;;;;;;3.38;64.63;99266.31;10515610;28;20796;-66
2023/12/08 11:25:21;;;;;;;9.90;4.85;;;;;;;3.45;64.77;99258.25;10515140;28;20048;-66
2023/12/08 11:30:35;;;;;;;7.68;4.05;;;;;;;3.47;64.67;99264.19;10515169;28;20526;-66
2023/12/08 11:35:38;;;;;;;8.75;4.78;;;;;;;3.45;64.77;99265.16;10468074;28;20154;-66
2023/12/08 11:40:52;;;;;;;10.77;5.60;;;;;;;3.45;64.59;99260.00;10515282;28;20048;-66
2023/12/08 11:45:55;;;;;;;9.18;5.07;;;;;;;3.48;64.78;99273.63;10496824;28;20044;-66
2023/12/08 11:51:01;;;;;;;13.48;6.00;;;;;;;3.55;64.60;99261.28;10515769;28;20475;-66
2023/12/08 11:56:03;;;;;;;7.35;4.15;;;;;;;3.63;64.55;99254.06;10511338;28;20047;-66
2023/12/08 12:01:06;;;;;;;11.02;5.32;;;;;;;3.59;64.56;99258.53;10513981;28;20066;-66
2023/12/08 12:06:08;;;;;;;8.75;5.13;;;;;;;3.58;64.60;99262.00;10513454;28;20488;-66
2023/12/08 12:11:12;;;;;;;11.45;4.97;;;;;;;3.68;64.72;99254.72;10504873;28;20159;-66
2023/12/08 12:16:16;;;;;;;9.10;4.50;;;;;;;3.80;64.52;99261.94;10512776;28;20052;-66
2023/12/08 12:21:19;;;;;;;8.88;4.97;;;;;;;3.78;64.30;99266.34;10507948;28;20051;-64
2023/12/08 12:26:21;;;;;;;9.55;5.15;;;;;;;3.85;64.15;99260.88;10508759;28;20408;-65
2023/12/08 12:31:23;;;;;;;9.85;5.25;;;;;;;3.98;64.38;99257.75;10512381;28;20480;-65
2023/12/08 12:36:25;;;;;;;10.93;5.38;;;;;;;4.08;64.18;99257.28;10508412;28;20803;-65
2023/12/08 12:41:27;;;;;;;10.38;5.10;;;;;;;3.89;64.30;99266.72;10497475;28;20079;-66
2023/12/08 12:46:30;;;;;;;10.10;5.07;;;;;;;3.71;64.32;99267.50;10492582;28;20039;-65
2023/12/08 12:51:34;;;;;;;10.95;4.93;;;;;;;3.69;64.58;99269.31;10511824;28;20040;-66
2023/12/08 12:56:49;;;;;;;11.57;6.00;;;;;;;3.84;64.49;99266.94;10507895;28;20516;-65
2023/12/08 13:01:53;;;;;;;13.45;6.22;;;;;;;4.01;64.42;99275.69;10506344;28;20309;-65
2023/12/08 13:06:55;;;;;;;10.65;5.53;;;;;;;4.04;64.39;99278.16;10505410;28;20044;-65
2023/12/08 13:11:58;;;;;;;10.68;5.38;;;;;;;3.87;64.39;99294.41;10502428;28;20046;-66
2023/12/08 13:17:01;;;;;;;12.70;6.00;;;;;;;3.85;64.44;99302.25;10508586;28;20067;-66
2023/12/08 13:22:03;;;;;;;10.15;5.32;;;;;;;3.94;64.82;99305.34;10492425;28;20039;-66
2023/12/08 13:27:07;;;;;;;10.82;6.13;;;;;;;4.06;64.55;99307.41;10511997;28;20492;-65
2023/12/08 13:32:09;;;;;;;12.07;6.18;;;;;;;4.05;64.29;99296.22;10507938;28;20040;-66
2023/12/08 13:37:11;;;;;;;10.02;5.45;;;;;;;4.07;64.29;99302.16;10508539;28;20047;-66
2023/12/08 13:42:14;;;;;;;9.30;4.40;;;;;;;4.13;64.48;99296.72;10510434;28;20510;-66
2023/12/08 13:47:16;;;;;;;8.75;4.60;;;;;;;3.99;64.41;99298.22;10506796;28;20059;-66
2023/12/08 13:52:20;;;;;;;10.50;6.03;;;;;;;3.97;64.62;99307.78;10509211;28;20138;-65
2023/12/08 13:57:22;;;;;;;12.45;5.20;;;;;;;3.93;64.79;99325.19;10514929;28;20048;-64
2023/12/08 14:02:24;;;;;;;11.27;5.25;;;;;;;3.92;64.85;99323.53;10515893;28;20047;-65
2023/12/08 14:07:27;;;;;;;7.47;4.65;;;;;;;4.05;64.98;99323.84;10511848;28;20525;-67
2023/12/08 14:12:30;;;;;;;11.65;5.18;;;;;;;4.14;64.55;99338.97;10500881;28;20048;-67
2023/12/08 14:17:32;;;;;;;10.60;5.03;;;;;;;4.07;64.63;99338.38;10519344;28;20048;-64
2023/12/08 14:22:34;;;;;;;11.85;5.43;;;;;;;4.03;64.94;99328.25;10516051;28;20050;-65
2023/12/08 14:27:36;;;;;;;10.73;5.60;;;;;;;4.16;64.81;99343.16;10500306;28;20410;-65
2023/12/08 14:32:40;;;;;;;13.23;6.15;;;;;;;4.16;64.69;99344.91;10518335;28;20836;-65
2023/12/08 14:37:43;;;;;;;18.83;6.30;;;;;;;4.12;64.90;99348.53;10498621;28;20058;-65
2023/12/08 14:42:47;;;;;;;14.98;6.57;;;;;;;4.10;65.12;99348.63;10499634;28;20066;-65
2023/12/08 14:47:49;;;;;;;12.90;6.35;;;;;;;4.16;65.07;99363.88;10518921;28;20154;-65
2023/12/08 14:52:52;;;;;;;13.73;5.47;;;;;;;4.07;65.15;99371.19;10496994;28;20052;-65
2023/12/08 14:57:54;;;;;;;12.10;5.70;;;;;;;3.98;65.07;99379.34;10515280;28;20166;-65
2023/12/08 15:02:56;;;;;;;9.98;5.47;;;;;;;3.82;65.35;99385.09;10517674;28;20044;-65
2023/12/08 15:07:58;;;;;;;9.90;5.97;;;;;;;3.82;65.89;99390.25;10521472;28;20059;-65
2023/12/08 15:13:00;;;;;;;10.90;5.60;;;;;;;3.96;65.49;99394.94;10470053;28;20052;-65
2023/12/08 15:18:02;;;;;;;14.60;5.57;;;;;;;3.79;65.42;99403.34;10521683;28;20753;-65
2023/12/08 15:23:05;;;;;;;10.45;5.70;;;;;;;3.81;65.69;99400.69;10522773;28;20044;-65
2023/12/08 15:28:07;;;;;;;14.82;6.88;;;;;;;3.77;65.60;99396.53;10523167;28;20051;-64
2023/12/08 15:33:10;;;;;;;12.88;6.15;;;;;;;3.60;66.01;99409.31;10522087;28;20415;-65
2023/12/08 15:38:14;;;;;;;11.10;5.60;;;;;;;3.56;66.16;99407.72;10503895;28;20048;-65
2023/12/08 15:43:20;;;;;;;11.68;6.05;;;;;;;3.60;66.06;99417.06;10488724;28;20044;-65
2023/12/08 15:48:22;;;;;;;13.93;5.60;;;;;;;3.62;66.16;99423.84;10521093;28;20101;-65
2023/12/08 15:53:25;;;;;;;9.40;4.97;;;;;;;3.58;66.04;99429.19;10520444;28;20047;-65
2023/12/08 15:58:27;;;;;;;10.27;5.32;;;;;;;3.49;66.17;99435.59;10520730;28;20047;-65
2023/12/08 16:03:29;;;;;;;11.63;5.60;;;;;;;3.54;66.25;99445.72;10520986;28;20037;-63
2023/12/08 16:08:31;;;;;;;11.13;5.05;;;;;;;3.66;66.20;99442.69;10511735;28;20051;-64
2023/12/08 16:13:33;;;;;;;12.40;4.85;;;;;;;3.76;65.99;99449.19;10508861;28;20411;-63
2023/12/08 16:18:35;;;;;;;9.88;6.28;;;;;;;3.76;65.99;99449.19;10511420;28;20040;-64
2023/12/08 16:23:39;;;;;;;8.40;4.90;;;;;;;3.77;65.99;99443.94;10496130;28;20039;-64
2023/12/08 16:28:41;;;;;;;14.20;5.47;;;;;;;3.77;66.10;99453.44;10527864;28;20197;-63
2023/12/08 16:33:47;;;;;;;11.48;5.22;;;;;;;3.81;66.11;99460.16;10513570;28;20127;-64
2023/12/08 16:38:49;;;;;;;12.05;4.97;;;;;;;3.77;65.95;99462.03;10511698;28;20591;-64
2023/12/08 16:43:51;;;;;;;11.13;5.15;;;;;;;3.56;66.72;99459.44;10513198;28;20044;-64
2023/12/08 16:48:53;;;;;;;10.73;6.00;;;;;;;3.56;66.74;99464.59;10493403;28;20046;-64
2023/12/08 16:53:56;;;;;;;13.77;5.25;;;;;;;3.50;66.91;99470.88;10512682;28;20731;-64
2023/12/08 16:58:58;;;;;;;11.85;6.15;;;;;;;3.47;67.03;99475.31;10506910;28;20047;-64
2023/12/08 17:04:00;;;;;;;11.48;5.97;;;;;;;3.47;67.04;99478.75;10512687;28;20064;-64
2023/12/08 17:09:04;;;;;;;10.90;5.03;;;;;;;3.53;66.83;99478.53;10477053;28;20115;-64
2023/12/08 17:14:06;;;;;;;10.10;5.25;;;;;;;3.55;66.88;99481.88;10512085;28;20055;-64
2023/12/08 17:19:09;;;;;;;13.32;6.25;;;;;;;3.65;66.88;99478.03;10510817;28;20047;-64
2023/12/08 17:24:11;;;;;;;13.55;6.00;;;;;;;3.77;66.75;99484.47;10506394;28;20036;-64
2023/12/08 17:29:14;;;;;;;13.00;5.97;;;;;;;3.75;66.46;99492.31;10509978;28;20056;-64
2023/12/08 17:34:16;;;;;;;12.18;5.63;;;;;;;3.58;66.68;99496.41;10510422;28;20504;-63
2023/12/08 17:39:24;;;;;;;14.15;6.57;;;;;;;3.52;67.12;99507.00;10510072;28;20070;-64
2023/12/08 17:44:33;;;;;;;12.30;6.45;;;;;;;3.55;66.88;99509.47;10510763;28;20044;-64
2023/12/08 17:49:35;;;;;;;11.65;5.95;;;;;;;3.42;67.45;99519.44;10472340;28;20590;-64
2023/12/08 17:54:38;;;;;;;14.60;6.72;;;;;;;3.50;67.55;99521.72;10490500;28;20373;-64
2023/12/08 17:59:40;;;;;;;12.63;6.28;;;;;;;3.59;67.41;99545.50;10511000;28;20812;-64
2023/12/08 18:04:42;;;;;;;13.00;5.70;;;;;;;3.73;67.01;99539.81;10510980;28;20125;-64
2023/12/08 18:09:44;;;;;;;11.15;6.05;;;;;;;3.71;67.00;99539.03;10508853;28;20040;-65
2023/12/08 18:14:46;;;;;;;14.30;6.43;;;;;;;3.79;67.11;99539.56;10512062;28;20044;-64
2023/12/08 18:19:48;;;;;;;15.57;6.60;;;;;;;3.88;66.73;99550.44;10492790;28;20396;-65
2023/12/08 18:24:52;;;;;;;14.25;6.00;;;;;;;3.73;66.69;99544.97;10493478;28;20036;-64
2023/12/08 18:29:56;;;;;;;12.98;5.38;;;;;;;3.61;67.01;99555.78;10510166;28;20044;-65
2023/12/08 18:34:58;;;;;;;13.63;6.20;;;;;;;3.60;67.00;99557.53;10509504;28;20051;-65
2023/12/08 18:40:00;;;;;;;15.50;6.55;;;;;;;3.48;67.08;99559.72;10506182;28;20048;-64
2023/12/08 18:45:03;;;;;;;12.68;6.70;;;;;;;3.60;67.43;99572.22;10517565;28;20435;-64
2023/12/08 18:50:06;;;;;;;12.85;6.35;;;;;;;3.64;67.05;99572.03;10482484;28;20054;-63
2023/12/08 18:55:09;;;;;;;15.55;5.75;;;;;;;3.63;67.23;99569.50;10493901;28;20047;-63
2023/12/08 19:00:12;;;;;;;12.60;6.55;;;;;;;3.67;67.02;99577.09;10516373;28;20408;-63
2023/12/08 19:05:14;;;;;;;15.85;6.53;;;;;;;3.56;67.05;99573.19;10498546;28;20052;-64
2023/12/08 19:10:16;;;;;;;13.65;6.82;;;;;;;3.56;67.35;99588.72;10512908;28;20059;-63
2023/12/08 19:15:20;;;;;;;14.65;6.85;;;;;;;3.50;67.52;99589.78;10515116;28;20043;-63
2023/12/08 19:20:23;;;;;;;13.98;7.28;;;;;;;3.62;67.39;99593.69;10515795;28;20052;-63
2023/12/08 19:25:26;;;;;;;20.08;7.47;;;;;;;3.71;67.24;99603.66;10530926;27;20055;-64
2023/12/08 19:30:28;;;;;;;12.38;6.10;;;;;;;3.70;66.96;99607.19;10516639;28;20048;-63
2023/12/08 19:35:30;;;;;;;15.50;6.82;;;;;;;3.67;66.98;99604.69;10516203;28;20047;-63
2023/12/08 19:40:32;;;;;;;14.82;6.50;;;;;;;3.66;67.06;99605.59;10516405;28;20801;-63
2023/12/08 19:45:34;;;;;;;14.43;7.97;;;;;;;3.63;67.00;99606.56;10516845;28;20526;-63
2023/12/08 19:50:36;;;;;;;14.00;6.75;;;;;;;3.49;67.13;99598.47;10497501;28;20155;-64
2023/12/08 19:55:38;;;;;;;14.20;7.00;;;;;;;3.63;67.18;99608.28;10514924;28;20097;-63
2023/12/08 20:00:40;;;;;;;13.43;6.22;;;;;;;3.78;66.90;99612.91;10516169;28;20052;-63
2023/12/08 20:05:43;;;;;;;14.75;7.82;;;;;;;3.84;66.66;99615.28;10530852;28;20396;-63
2023/12/08 20:10:45;;;;;;;15.15;6.95;;;;;;;3.82;66.65;99617.06;10516968;28;20410;-64
2023/12/08 20:15:48;;;;;;;11.93;6.85;;;;;;;3.88;66.63;99624.63;10519669;28;20447;-65
2023/12/08 20:20:50;;;;;;;16.00;7.32;;;;;;;3.86;66.43;99621.25;10498566;28;20056;-63
2023/12/08 20:25:52;;;;;;;14.00;5.97;;;;;;;3.73;66.77;99625.16;10517917;28;20048;-63
2023/12/08 20:30:56;;;;;;;17.63;6.90;;;;;;;3.66;66.92;99621.13;10482445;28;20121;-63
2023/12/08 20:35:58;;;;;;;14.45;6.65;;;;;;;3.79;67.19;99624.91;10517882;28;20036;-63
2023/12/08 20:41:00;;;;;;;17.98;7.93;;;;;;;3.96;66.86;99639.84;10517365;28;20401;-63
2023/12/08 20:46:03;;;;;;;14.93;7.60;;;;;;;4.01;66.63;99643.09;10517491;28;20577;-63
2023/12/08 20:51:05;;;;;;;13.00;6.28;;;;;;;3.99;66.58;99650.91;10498735;28;20101;-63
2023/12/08 20:56:11;;;;;;;18.67;7.13;;;;;;;4.07;66.51;99646.28;10516936;28;20044;-62
2023/12/08 21:01:13;;;;;;;14.38;6.80;;;;;;;4.17;66.31;99639.88;10517331;28;20068;-63
2023/12/08 21:06:17;;;;;;;15.00;7.70;;;;;;;4.16;66.56;99658.06;10515373;28;20139;-63
2023/12/08 21:11:20;;;;;;;18.63;8.10;;;;;;;4.15;66.23;99657.19;10514641;28;20492;-63
2023/12/08 21:16:21;;;;;;;15.52;6.93;;;;;;;4.07;66.51;99663.59;10498273;28;20084;-62
2023/12/08 21:21:23;;;;;;;15.80;6.93;;;;;;;4.04;66.58;99669.72;10514473;28;20048;-63
2023/12/08 21:26:28;;;;;;;18.75;7.47;;;;;;;4.06;66.61;99670.50;10515009;28;20040;-63
2023/12/08 21:31:32;;;;;;;16.17;7.40;;;;;;;4.11;66.57;99657.41;10515927;28;20070;-63
2023/12/08 21:36:33;;;;;;;19.23;7.18;;;;;;;4.05;66.65;99657.63;10515922;28;20052;-63
2023/12/08 21:41:36;;;;;;;15.73;6.70;;;;;;;3.89;66.86;99659.94;10515093;28;20056;-63
2023/12/08 21:46:38;;;;;;;16.25;7.55;;;;;;;3.96;67.04;99665.72;10515731;28;20036;-63
2023/12/08 21:51:40;;;;;;;15.23;7.13;;;;;;;4.07;66.68;99669.59;10496913;28;20488;-63
2023/12/08 21:56:42;;;;;;;13.10;5.93;;;;;;;4.16;66.71;99653.72;10497382;28;20044;-63
2023/12/08 22:01:44;;;;;;;20.35;9.82;;;;;;;4.18;66.56;99657.09;10515416;28;20071;-64
2023/12/08 22:06:46;;;;;;;16.77;8.45;;;;;;;4.17;66.76;99645.03;10493909;28;20131;-63
2023/12/08 22:11:48;;;;;;;20.70;8.75;;;;;;;4.17;66.66;99652.81;10496616;28;20585;-63
2023/12/08 22:16:51;;;;;;;23.13;8.65;;;;;;;4.20;66.73;99654.44;10517751;28;20389;-64
2023/12/08 22:21:53;;;;;;;13.95;8.13;;;;;;;4.17;66.41;99655.41;10522111;28;20052;-63
2023/12/08 22:26:55;;;;;;;18.20;8.50;;;;;;;4.08;66.70;99666.13;10504770;28;20047;-63
2023/12/08 22:31:57;;;;;;;23.77;8.45;;;;;;;4.09;66.74;99669.56;10523362;28;20051;-64
2023/12/08 22:36:59;;;;;;;17.83;8.68;;;;;;;4.18;66.77;99666.59;10506335;28;20148;-63
2023/12/08 22:42:01;;;;;;;14.02;6.72;;;;;;;4.21;66.53;99672.50;10524164;28;20570;-63
2023/12/08 22:47:03;;;;;;;16.20;7.15;;;;;;;4.08;66.57;99667.84;10523764;28;20048;-63
2023/12/08 22:52:05;;;;;;;16.45;6.85;;;;;;;3.93;66.93;99673.59;10506398;28;20438;-64
2023/12/08 22:57:07;;;;;;;15.68;6.78;;;;;;;3.91;67.09;99673.66;10523354;28;20480;-63
2023/12/08 23:02:09;;;;;;;15.50;7.07;;;;;;;3.88;67.06;99699.66;10505682;28;20056;-64
2023/12/08 23:07:11;;;;;;;15.48;7.10;;;;;;;3.91;67.30;99704.69;10505484;28;20051;-64
2023/12/08 23:12:14;;;;;;;12.93;6.55;;;;;;;4.03;67.13;99709.41;10523471;28;20063;-64
2023/12/08 23:17:18;;;;;;;18.50;7.63;;;;;;;4.17;66.88;99708.94;10522906;28;20557;-63
2023/12/08 23:22:20;;;;;;;14.18;6.78;;;;;;;4.25;66.60;99705.13;10522860;28;20058;-63
2023/12/08 23:27:22;;;;;;;28.08;11.85;;;;;;;4.17;66.72;99717.50;10503677;28;20048;-63
2023/12/08 23:32:24;;;;;;;24.52;11.13;;;;;;;4.20;66.76;99699.28;10522068;28;20060;-63
2023/12/08 23:37:26;;;;;;;18.77;9.85;;;;;;;4.05;66.81;99702.44;10522029;28;20044;-63